Alamo, GA

6:23 PM EDT on July 29, 2015 (GMT -0400)
Hazlehurst | | Change Station
CLOSE
Current Station
Airport
Location: Hazlehurst,
Elevation: 256 ft
Nearby Weather Stations
Active Advisory: Heat Advisory

Elev 256 ft 31.88 °N, 82.65 °W | Updated 8 minutes ago

Partly Cloudy
Partly Cloudy
93 °F
Feels Like 102 °F
N
0
Wind Variable Wind from North

Today
High -- | Low -- °F
--% Chance of Precip.
Yesterday
High -- | Low -- °F
Precip. -- in
6:44 AM 8:30 PM
Waxing Gibbous, 97% visible
Pressure 29.89 in
Visibility 10.0 miles
Clouds Clear
Heat Index 102 °F
Dew Point 73 °F
Humidity 51%
Rainfall 0.00 in
Snow Depth Not available.
UV 3 out of 12
Pollen 3.80 out of 12
Air Quality Not available.
Flu Activity Not available.
METAR KAZE 292215Z AUTO 00000KT 10SM CLR 34/23 A2989 RMK AO2 T03410227

More Conditions Fewer Conditions

Pressure 29.89 in
Visibility 10.0 miles
Clouds Clear
Heat Index 102 °F
Dew Point 73 °F
Humidity 51%
Rainfall 0.00 in
Snow Depth Not available.
UV 3 out of 12
Pollen 3.80 out of 12
Air Quality Not available.
Flu Activity Not available.
METAR KAZE 292215Z AUTO 00000KT 10SM CLR 34/23 A2989 RMK AO2 T03410227

More Conditions Fewer Conditions

10-Day Weather Forecast

×

Almanac

Astronomy

Jul. 29, 2015 Rise Set
Actual Time
Civil Twilight
Nautical Twilight
Astronomical Twilight
Moon
Length of Visible Light
Length of Day
Tomorrow will be .
, % of the Moon is Illuminated

Today's Extremes

State Highs State Lows

Community

WunderPhotos

Upload Photos

1,842,171 photos uploaded!

WunderBlogs® & News

Nearby

Air Quality

  Air Quality AQ Index Pollutant
Not available.

Snow Depth

Station Depth Elevation

Earthquake Activity

City Distance Mag. Time & Date
Minimum magnitude displayed is 2.5.

Coastal Water Temperatures

Place Temperature

Stations

Nearby Weather Stations

Station Location Temp. Windchill Dew Point Humidity Wind Precip. Elev Updated Type
                   
Heat Advisory
Statement as of 1:29 PM EDT on July 29, 2015

... Heat advisory remains in effect until 8 PM EDT this evening...

* locations... parts of central Georgia... generally along and
south of a Columbus to Macon and Swainsboro line.

* Heat index values... 105 to 108.

* Impacts... high temperatures and humidity could lead to heat
related illnesses if proper precautions are not taken.

Precautionary/preparedness actions...

A heat advisory means that a period of dangerous heat is
expected. The combination of hot temperatures and high humidity
will create heat index readings of at least 105 degrees and very
warm overnight temperatures. Drink plenty of fluids... stay in an
air-conditioned room and stay out of direct sunshine. Remember...
the elderly... very Young... and people with heart conditions are
most at risk in extreme heat. Friends... relatives... and neighbors
should check on people who may be at risk. Make sure pets have a
shady place to rest out of the sun and plenty of clean... cool
water.